createdAt,value
2024-03-08T00:00:28.189Z,6.78
2024-03-08T00:01:29.810Z,6.80
2024-03-08T00:02:31.434Z,6.78
2024-03-08T00:03:33.798Z,6.70
2024-03-08T00:04:35.340Z,6.75
2024-03-08T00:05:39.693Z,6.71
2024-03-08T00:06:41.764Z,6.73
2024-03-08T00:07:44.359Z,6.75
2024-03-08T00:08:46.072Z,6.67
2024-03-08T00:09:47.672Z,6.69
2024-03-08T00:10:49.331Z,6.61
2024-03-08T00:11:51.555Z,6.62
2024-03-08T00:12:54.646Z,6.56
2024-03-08T00:13:56.491Z,6.48
2024-03-08T00:14:58.225Z,6.46
2024-03-08T00:15:59.776Z,6.55
2024-03-08T00:17:01.391Z,6.56
2024-03-08T00:18:03.003Z,6.58
2024-03-08T00:19:04.628Z,6.52
2024-03-08T00:20:09.357Z,6.47
2024-03-08T00:21:11.446Z,6.49
2024-03-08T00:22:13.019Z,6.44
2024-03-08T00:23:14.575Z,6.24
2024-03-08T00:24:16.165Z,6.36
2024-03-08T00:25:17.803Z,6.45
2024-03-08T00:26:19.655Z,6.41
2024-03-08T00:27:22.268Z,6.45
2024-03-08T00:28:26.164Z,6.46
2024-03-08T00:29:28.716Z,6.46
2024-03-08T00:30:30.397Z,6.48
2024-03-08T00:31:35.113Z,6.51
2024-03-08T00:32:38.359Z,6.53
2024-03-08T00:33:41.051Z,6.53
2024-03-08T00:34:42.694Z,6.54
2024-03-08T00:35:44.340Z,6.51
2024-03-08T00:36:46.028Z,6.47
2024-03-08T00:37:50.367Z,6.50
2024-03-08T00:38:51.966Z,6.50
2024-03-08T00:39:54.216Z,6.45
2024-03-08T00:40:57.049Z,6.40
2024-03-08T00:41:58.649Z,6.44
2024-03-08T00:43:00.247Z,6.50
2024-03-08T00:44:01.839Z,6.43
2024-03-08T00:45:04.086Z,6.47
2024-03-08T00:46:05.827Z,6.44
2024-03-08T00:47:07.441Z,6.42
2024-03-08T00:48:09.529Z,6.33
2024-03-08T00:49:11.102Z,6.31
2024-03-08T00:50:14.142Z,6.23
2024-03-08T00:51:18.325Z,6.31
2024-03-08T00:52:20.386Z,6.32
2024-03-08T00:53:22.057Z,6.25
2024-03-08T00:54:23.599Z,6.20
2024-03-08T00:55:25.168Z,6.21
2024-03-08T00:56:26.752Z,6.20
2024-03-08T00:57:29.137Z,6.21
2024-03-08T00:58:31.748Z,6.21
2024-03-08T00:59:36.511Z,6.19
2024-03-08T01:00:39.971Z,6.22
2024-03-08T01:01:45.255Z,6.18
2024-03-08T01:02:46.888Z,6.19
2024-03-08T01:03:49.803Z,6.14
2024-03-08T01:04:51.518Z,6.12
2024-03-08T01:05:53.099Z,6.03
2024-03-08T01:06:54.656Z,6.11
2024-03-08T01:07:56.188Z,6.11
2024-03-08T01:08:57.818Z,6.13
2024-03-08T01:09:59.685Z,6.11
2024-03-08T01:11:01.315Z,6.11
2024-03-08T01:12:02.985Z,6.10
2024-03-08T01:13:04.808Z,6.09
2024-03-08T01:14:06.593Z,5.97
2024-03-08T01:15:08.603Z,5.91
2024-03-08T01:16:12.535Z,5.90
2024-03-08T01:17:15.502Z,5.91
2024-03-08T01:18:17.251Z,5.90
2024-03-08T01:19:19.005Z,5.90
2024-03-08T01:20:20.802Z,5.94
2024-03-08T01:21:23.464Z,5.88
2024-03-08T01:22:25.048Z,5.90
2024-03-08T01:23:26.823Z,5.94
2024-03-08T01:24:28.367Z,5.97
2024-03-08T01:25:29.964Z,5.96
2024-03-08T01:26:31.841Z,6.02
2024-03-08T01:27:33.609Z,6.01
2024-03-08T01:28:35.583Z,6.04
2024-03-08T01:29:37.214Z,6.02
2024-03-08T01:30:39.737Z,6.00
2024-03-08T01:31:41.305Z,6.02
2024-03-08T01:32:43.768Z,6.04
2024-03-08T01:33:45.438Z,6.00
2024-03-08T01:34:47.087Z,5.95
2024-03-08T01:35:49.098Z,5.93
2024-03-08T01:36:50.716Z,5.95
2024-03-08T01:37:52.256Z,5.95
2024-03-08T01:38:54.014Z,5.91
2024-03-08T01:39:55.580Z,5.98
2024-03-08T01:40:57.450Z,5.98
2024-03-08T01:41:59.570Z,5.95
2024-03-08T01:43:36.959Z,5.88
2024-03-08T01:44:38.531Z,5.92
2024-03-08T01:45:40.048Z,5.93
2024-03-08T01:46:41.622Z,5.93
2024-03-08T01:47:43.297Z,5.90
2024-03-08T01:48:45.609Z,5.91
2024-03-08T01:49:47.369Z,5.97
2024-03-08T01:50:49.070Z,5.92
2024-03-08T01:51:50.986Z,5.87
2024-03-08T01:52:53.485Z,5.93
2024-03-08T01:53:56.996Z,5.91
2024-03-08T01:55:02.060Z,5.92
2024-03-08T01:56:04.095Z,5.86
2024-03-08T01:57:05.920Z,5.86
2024-03-08T01:58:08.182Z,5.80
2024-03-08T01:59:10.176Z,5.82
2024-03-08T02:00:12.978Z,5.85
2024-03-08T02:01:17.940Z,5.85
2024-03-08T02:02:20.999Z,5.78
2024-03-08T02:03:23.552Z,5.82
2024-03-08T02:04:25.568Z,5.83
2024-03-08T02:05:27.391Z,5.79
2024-03-08T02:06:28.964Z,5.74
2024-03-08T02:07:30.483Z,5.75
2024-03-08T02:08:32.770Z,5.73
2024-03-08T02:09:34.419Z,5.62
2024-03-08T02:10:36.017Z,5.71
2024-03-08T02:11:38.296Z,5.70
2024-03-08T02:12:40.355Z,5.74
2024-03-08T02:13:42.385Z,5.73
2024-03-08T02:14:45.232Z,5.75
2024-03-08T02:16:01.451Z,5.78
2024-03-08T02:17:03.608Z,5.75
2024-03-08T02:18:05.806Z,5.74
2024-03-08T02:19:10.819Z,5.70
2024-03-08T02:20:14.639Z,5.73
2024-03-08T02:21:22.069Z,5.68
2024-03-08T02:22:23.755Z,5.67
2024-03-08T02:23:26.101Z,5.63
2024-03-08T02:24:27.722Z,5.66
2024-03-08T02:25:29.628Z,5.65
2024-03-08T02:26:31.236Z,5.60
2024-03-08T02:27:32.887Z,5.67
2024-03-08T02:28:35.200Z,5.72
2024-03-08T02:29:37.855Z,5.68
2024-03-08T02:30:39.945Z,5.72
2024-03-08T02:31:41.469Z,5.68
2024-03-08T02:32:43.108Z,5.66
2024-03-08T02:33:44.880Z,5.65
2024-03-08T02:34:46.503Z,5.70
2024-03-08T02:35:49.320Z,5.66
2024-03-08T02:36:50.878Z,5.63
2024-03-08T02:37:52.429Z,5.47
2024-03-08T02:38:54.017Z,5.61
2024-03-08T02:39:56.407Z,5.60
2024-03-08T02:40:58.016Z,5.65
2024-03-08T02:41:59.620Z,5.68
2024-03-08T02:43:01.244Z,5.74
2024-03-08T02:44:02.843Z,5.71
2024-03-08T02:45:06.835Z,5.72
2024-03-08T02:46:08.474Z,5.68
2024-03-08T02:47:10.089Z,5.63
2024-03-08T02:48:12.391Z,5.63
2024-03-08T02:49:13.994Z,5.65
2024-03-08T02:50:17.429Z,5.69
2024-03-08T02:51:19.198Z,5.62
2024-03-08T02:52:22.464Z,5.64
2024-03-08T02:53:25.821Z,5.71
2024-03-08T02:54:27.398Z,5.71
2024-03-08T02:55:29.044Z,5.74
2024-03-08T02:56:31.407Z,5.74
2024-03-08T02:57:33.266Z,5.70
2024-03-08T02:58:34.813Z,5.69
2024-03-08T02:59:36.421Z,5.80
2024-03-08T03:00:40.067Z,5.81
2024-03-08T03:01:42.427Z,5.82
2024-03-08T03:02:44.071Z,5.81
2024-03-08T03:03:45.661Z,5.80
2024-03-08T03:04:47.157Z,5.75
2024-03-08T03:05:49.598Z,5.79
2024-03-08T03:06:51.992Z,5.74
2024-03-08T03:07:53.582Z,5.71
2024-03-08T03:08:55.179Z,5.77
2024-03-08T03:09:56.943Z,5.75
2024-03-08T03:10:58.570Z,5.77
2024-03-08T03:12:00.690Z,5.75
2024-03-08T03:13:02.252Z,5.73
2024-03-08T03:14:03.786Z,5.79
2024-03-08T03:15:06.234Z,5.82
2024-03-08T03:16:08.464Z,5.82
2024-03-08T03:17:11.183Z,5.89
2024-03-08T03:18:13.049Z,5.96
2024-03-08T03:19:16.206Z,5.97
2024-03-08T03:20:27.176Z,6.01
2024-03-08T03:21:32.859Z,5.94
2024-03-08T03:22:35.950Z,5.93
2024-03-08T03:23:38.320Z,5.94
2024-03-08T03:24:41.191Z,5.92
2024-03-08T03:25:42.931Z,5.94
2024-03-08T03:26:44.949Z,5.91
2024-03-08T03:27:47.514Z,5.93
2024-03-08T03:28:49.397Z,5.92
2024-03-08T03:29:52.014Z,5.92
2024-03-08T03:30:54.167Z,5.89
2024-03-08T03:31:55.701Z,5.88
2024-03-08T03:33:00.116Z,5.92
2024-03-08T03:34:05.107Z,5.88
2024-03-08T03:35:07.041Z,5.86
2024-03-08T03:36:11.178Z,5.89
2024-03-08T03:37:13.723Z,5.86
2024-03-08T03:38:15.536Z,5.83
2024-03-08T03:39:17.865Z,5.84
2024-03-08T03:40:20.664Z,5.91
2024-03-08T03:41:22.234Z,5.92
2024-03-08T03:42:25.077Z,5.90
2024-03-08T03:43:27.088Z,5.84
2024-03-08T03:44:29.594Z,5.86
2024-03-08T03:45:36.450Z,5.82
2024-03-08T03:46:38.872Z,5.83
2024-03-08T03:47:40.454Z,5.86
2024-03-08T03:48:43.536Z,5.88
2024-03-08T03:49:46.174Z,5.79
2024-03-08T03:50:47.913Z,5.79
2024-03-08T03:51:49.478Z,5.80
2024-03-08T03:52:51.020Z,5.79
2024-03-08T03:53:53.882Z,5.81
2024-03-08T03:54:55.507Z,5.75
2024-03-08T03:55:57.805Z,5.78
2024-03-08T03:56:59.608Z,5.83
2024-03-08T03:58:02.381Z,5.83
2024-03-08T03:59:04.018Z,5.86
2024-03-08T04:00:07.469Z,5.83
2024-03-08T04:01:10.829Z,5.87
2024-03-08T04:02:12.373Z,5.80
2024-03-08T04:03:14.017Z,5.75
2024-03-08T04:04:15.599Z,5.75
2024-03-08T04:05:17.139Z,5.70
2024-03-08T04:06:18.733Z,5.67
2024-03-08T04:07:20.301Z,5.64
2024-03-08T04:08:22.008Z,5.62
2024-03-08T04:09:23.547Z,5.62
2024-03-08T04:10:25.375Z,5.61
2024-03-08T04:11:27.066Z,5.63
2024-03-08T04:12:30.328Z,5.67
2024-03-08T04:13:31.928Z,5.66
2024-03-08T04:14:34.168Z,5.63
2024-03-08T04:15:35.755Z,5.61
2024-03-08T04:16:38.332Z,5.57
2024-03-08T04:17:40.036Z,5.47
2024-03-08T04:18:41.916Z,5.48
2024-03-08T04:19:43.709Z,5.50
2024-03-08T04:20:45.326Z,5.55
2024-03-08T04:21:46.922Z,5.37
2024-03-08T04:22:50.577Z,5.52
2024-03-08T04:23:52.838Z,5.48
2024-03-08T04:24:54.415Z,5.46
2024-03-08T04:25:55.966Z,5.44
2024-03-08T04:26:57.867Z,5.45
2024-03-08T04:27:59.517Z,5.45
2024-03-08T04:29:01.066Z,5.47
2024-03-08T04:30:08.867Z,5.38
2024-03-08T04:31:11.791Z,5.43
2024-03-08T04:32:14.661Z,5.38
2024-03-08T04:33:17.697Z,5.35
2024-03-08T04:34:19.367Z,5.27
2024-03-08T04:35:21.942Z,5.28
2024-03-08T04:36:24.480Z,5.40
2024-03-08T04:37:26.456Z,5.42
2024-03-08T04:38:28.191Z,5.38
2024-03-08T04:39:30.071Z,5.35
2024-03-08T04:40:32.434Z,5.32
2024-03-08T04:41:35.322Z,5.30
2024-03-08T04:42:40.193Z,5.32
2024-03-08T04:43:41.746Z,5.34
2024-03-08T04:44:43.281Z,5.30
2024-03-08T04:45:45.145Z,5.23
2024-03-08T04:46:47.998Z,5.24
2024-03-08T04:47:49.779Z,5.30
2024-03-08T04:48:51.620Z,5.29
2024-03-08T04:49:54.323Z,5.45
2024-03-08T04:50:56.992Z,5.37
2024-03-08T04:51:58.635Z,5.38
2024-03-08T04:53:00.166Z,5.38
2024-03-08T04:54:01.804Z,5.33
2024-03-08T04:55:06.242Z,5.29
2024-03-08T04:56:08.375Z,5.33
2024-03-08T04:57:10.238Z,5.17
2024-03-08T04:58:11.803Z,5.35
2024-03-08T04:59:13.454Z,5.32
2024-03-08T05:00:16.252Z,5.33
2024-03-08T05:01:18.301Z,5.31
2024-03-08T05:02:19.829Z,5.26
2024-03-08T05:03:22.425Z,5.29
2024-03-08T05:04:23.935Z,5.28
2024-03-08T05:05:27.285Z,5.35
2024-03-08T05:06:30.065Z,5.36
2024-03-08T05:07:31.663Z,5.29
2024-03-08T05:08:34.234Z,5.34
2024-03-08T05:09:37.385Z,5.36
2024-03-08T05:10:39.016Z,5.37
2024-03-08T05:11:48.127Z,5.43
2024-03-08T05:12:50.498Z,5.40
2024-03-08T05:13:52.046Z,5.34
2024-03-08T05:14:53.608Z,5.31
2024-03-08T05:15:55.336Z,5.28
2024-03-08T05:16:57.128Z,5.32
2024-03-08T05:17:59.263Z,5.30
2024-03-08T05:19:01.048Z,5.33
2024-03-08T05:20:03.067Z,5.33
2024-03-08T05:21:05.263Z,5.30
2024-03-08T05:22:06.816Z,5.31
2024-03-08T05:23:09.434Z,5.33
2024-03-08T05:24:11.467Z,5.28
2024-03-08T05:25:13.443Z,5.29
2024-03-08T05:27:17.533Z,5.17
2024-03-08T05:28:19.081Z,5.18
2024-03-08T05:29:20.685Z,5.21
2024-03-08T05:30:23.022Z,5.24
2024-03-08T05:31:24.676Z,5.25
2024-03-08T05:32:27.280Z,5.28
2024-03-08T05:33:29.704Z,5.29
2024-03-08T05:34:31.494Z,5.34
2024-03-08T05:35:33.740Z,5.35
2024-03-08T05:36:36.067Z,5.40
2024-03-08T05:37:37.874Z,5.42
2024-03-08T05:38:39.459Z,5.44
2024-03-08T05:39:42.141Z,5.45
2024-03-08T05:40:44.514Z,5.45
2024-03-08T05:41:47.011Z,5.40
2024-03-08T05:42:48.594Z,5.39
2024-03-08T05:43:50.164Z,5.33
2024-03-08T05:44:51.733Z,5.35
2024-03-08T05:45:53.349Z,5.37
2024-03-08T05:46:54.916Z,5.36
2024-03-08T05:47:56.680Z,5.36
2024-03-08T05:48:59.979Z,5.46
2024-03-08T05:50:01.608Z,5.48
2024-03-08T05:51:03.347Z,5.38
2024-03-08T05:52:05.796Z,5.45
2024-03-08T05:53:07.755Z,5.47
2024-03-08T05:54:12.120Z,5.50
2024-03-08T05:55:15.564Z,5.42
2024-03-08T05:56:17.438Z,5.44
2024-03-08T05:57:19.321Z,5.44
2024-03-08T05:58:20.899Z,5.48
2024-03-08T05:59:24.560Z,5.46
2024-03-08T06:00:27.406Z,5.45
2024-03-08T06:01:29.714Z,5.48
2024-03-08T06:02:31.270Z,5.39
2024-03-08T06:03:32.839Z,5.49
2024-03-08T06:04:34.395Z,5.47
2024-03-08T06:05:36.015Z,5.49
2024-03-08T06:06:38.955Z,5.58
2024-03-08T06:07:41.765Z,5.56
2024-03-08T06:08:44.700Z,5.61
2024-03-08T06:09:49.311Z,5.52
2024-03-08T06:10:53.809Z,5.46
2024-03-08T06:11:56.211Z,5.54
2024-03-08T06:12:57.907Z,5.46
2024-03-08T06:14:01.393Z,5.42
2024-03-08T06:15:03.468Z,5.50
2024-03-08T06:16:05.801Z,5.50
2024-03-08T06:17:08.358Z,5.44
2024-03-08T06:18:13.066Z,5.43
2024-03-08T06:19:14.859Z,5.44
2024-03-08T06:20:16.651Z,5.38
2024-03-08T06:21:18.188Z,5.44
2024-03-08T06:22:21.004Z,5.47
2024-03-08T06:23:22.960Z,5.54
2024-03-08T06:24:24.637Z,5.51
2024-03-08T06:25:26.226Z,5.49
2024-03-08T06:26:31.559Z,5.38
2024-03-08T06:27:35.115Z,5.38
2024-03-08T06:28:36.813Z,5.38
2024-03-08T06:29:38.463Z,5.32
2024-03-08T06:30:40.049Z,5.35
2024-03-08T06:31:41.702Z,5.31
2024-03-08T06:32:44.548Z,5.29
2024-03-08T06:33:46.764Z,5.26
2024-03-08T06:34:48.375Z,5.28
2024-03-08T06:35:49.914Z,5.29
2024-03-08T06:36:53.624Z,5.27
2024-03-08T06:37:55.420Z,5.34
2024-03-08T06:38:58.195Z,5.35
2024-03-08T06:39:59.919Z,5.30
2024-03-08T06:41:04.205Z,5.31
2024-03-08T06:42:06.137Z,5.34
2024-03-08T06:43:08.061Z,5.34
2024-03-08T06:44:10.239Z,5.31
2024-03-08T06:45:13.621Z,5.35
2024-03-08T06:46:21.910Z,5.39
2024-03-08T06:47:26.875Z,5.34
2024-03-08T06:48:28.608Z,5.38
2024-03-08T06:49:30.673Z,5.37
2024-03-08T06:50:33.287Z,5.35
2024-03-08T06:51:34.877Z,5.46
2024-03-08T06:52:36.416Z,5.46
2024-03-08T06:53:39.946Z,5.45
2024-03-08T06:54:41.971Z,5.50
2024-03-08T06:55:43.688Z,5.49
2024-03-08T06:56:45.306Z,5.52
2024-03-08T06:57:46.915Z,5.51
2024-03-08T06:58:49.054Z,5.43
2024-03-08T06:59:50.706Z,5.44
2024-03-08T07:00:53.391Z,5.43
2024-03-08T07:01:55.454Z,5.51
2024-03-08T07:03:01.963Z,5.52
2024-03-08T07:04:06.415Z,5.51
2024-03-08T07:05:11.607Z,5.53
2024-03-08T07:06:13.758Z,5.52
2024-03-08T07:07:16.168Z,5.53
2024-03-08T07:08:17.878Z,5.52
2024-03-08T07:09:19.562Z,5.58
2024-03-08T07:10:27.177Z,5.56
2024-03-08T07:11:28.844Z,5.51
2024-03-08T07:12:30.483Z,5.50
2024-03-08T07:13:32.736Z,5.50
2024-03-08T07:14:34.356Z,5.50
2024-03-08T07:15:36.687Z,5.57
2024-03-08T07:16:38.224Z,5.55
2024-03-08T07:17:40.609Z,5.60
2024-03-08T07:18:44.730Z,5.57
2024-03-08T07:19:46.541Z,5.55
2024-03-08T07:20:48.181Z,5.52
2024-03-08T07:21:49.754Z,5.57
2024-03-08T07:22:54.126Z,5.56
2024-03-08T07:24:01.580Z,5.58
2024-03-08T07:25:21.007Z,5.59
2024-03-08T07:26:22.674Z,5.57
2024-03-08T07:27:24.461Z,5.55
2024-03-08T07:28:26.030Z,5.60
2024-03-08T07:29:27.608Z,5.65
2024-03-08T07:30:44.769Z,5.54
2024-03-08T07:31:52.199Z,5.63
2024-03-08T07:32:53.879Z,5.61
2024-03-08T07:33:55.536Z,5.61
2024-03-08T07:34:57.366Z,5.60
2024-03-08T07:35:59.040Z,5.68
2024-03-08T07:37:00.738Z,5.78
2024-03-08T07:38:03.663Z,5.78
2024-03-08T07:39:10.450Z,5.79
2024-03-08T07:40:14.915Z,5.79
2024-03-08T07:41:17.525Z,5.69
2024-03-08T07:42:19.108Z,5.67
2024-03-08T07:43:20.631Z,5.68
2024-03-08T07:44:22.245Z,5.74
2024-03-08T07:45:23.858Z,5.66
2024-03-08T07:46:25.412Z,5.70
2024-03-08T07:47:27.611Z,5.72
2024-03-08T07:48:29.530Z,5.72
2024-03-08T07:49:31.325Z,5.70
2024-03-08T07:50:34.384Z,5.71
2024-03-08T07:51:36.130Z,5.78
2024-03-08T07:52:38.058Z,5.75
2024-03-08T07:53:39.693Z,5.70
2024-03-08T07:54:41.312Z,5.74
2024-03-08T07:55:44.004Z,5.84
2024-03-08T07:56:45.869Z,5.80
2024-03-08T07:57:48.789Z,5.85
2024-03-08T07:58:50.380Z,5.92
2024-03-08T07:59:51.928Z,5.89
2024-03-08T08:00:53.498Z,5.83
2024-03-08T08:01:55.375Z,5.87
2024-03-08T08:02:57.090Z,5.80
2024-03-08T08:03:58.682Z,5.77
2024-03-08T08:05:00.522Z,5.73
2024-03-08T08:06:02.609Z,5.93
2024-03-08T08:07:04.402Z,5.97
2024-03-08T08:08:07.862Z,5.97
2024-03-08T08:09:29.189Z,5.90
2024-03-08T08:10:30.796Z,5.92
2024-03-08T08:11:33.709Z,5.92
2024-03-08T08:12:35.275Z,5.98
2024-03-08T08:13:37.660Z,5.92
2024-03-08T08:14:42.492Z,6.00
2024-03-08T08:15:44.076Z,5.96
2024-03-08T08:16:46.367Z,5.99
2024-03-08T08:17:52.981Z,5.96
2024-03-08T08:18:55.664Z,6.00
2024-03-08T08:19:57.261Z,5.95
2024-03-08T08:20:58.762Z,5.98
2024-03-08T08:22:00.338Z,5.96
2024-03-08T08:23:02.123Z,5.91
2024-03-08T08:24:07.474Z,5.96
2024-03-08T08:25:09.406Z,5.93
2024-03-08T08:26:12.399Z,5.91
2024-03-08T08:27:15.484Z,6.03
2024-03-08T08:28:20.151Z,5.99
2024-03-08T08:29:21.753Z,6.00
2024-03-08T08:30:23.631Z,6.00
2024-03-08T08:31:25.161Z,6.02
2024-03-08T08:32:27.677Z,6.07
2024-03-08T08:33:29.348Z,6.16
2024-03-08T08:34:31.379Z,6.15
2024-03-08T08:35:34.031Z,6.17
2024-03-08T08:36:36.343Z,6.22
2024-03-08T08:37:40.150Z,6.31
2024-03-08T08:38:45.189Z,6.28
2024-03-08T08:39:50.780Z,6.39
2024-03-08T08:40:53.683Z,6.38
2024-03-08T08:41:56.480Z,6.37
2024-03-08T08:43:01.169Z,6.37
2024-03-08T08:44:09.139Z,6.39
2024-03-08T08:45:23.188Z,6.43
2024-03-08T08:46:27.344Z,6.45
2024-03-08T08:47:29.444Z,6.46
2024-03-08T08:48:31.906Z,6.44
2024-03-08T08:49:33.522Z,6.49
2024-03-08T08:50:35.487Z,6.50
2024-03-08T08:51:37.834Z,6.51
2024-03-08T08:52:40.924Z,6.57
2024-03-08T08:53:48.772Z,6.59
2024-03-08T08:54:51.033Z,6.57
2024-03-08T08:55:54.412Z,6.67
2024-03-08T08:56:56.112Z,6.72
2024-03-08T08:57:58.104Z,6.74
2024-03-08T08:58:59.780Z,6.76
2024-03-08T09:00:01.648Z,6.73
2024-03-08T09:01:03.346Z,6.72
2024-03-08T09:02:05.108Z,6.73
2024-03-08T09:03:08.151Z,6.75
2024-03-08T09:04:09.737Z,6.81
2024-03-08T09:05:12.863Z,6.87
2024-03-08T09:06:14.844Z,6.86
2024-03-08T09:07:17.475Z,6.90
2024-03-08T09:08:19.231Z,6.91
2024-03-08T09:09:20.933Z,7.05
2024-03-08T09:10:22.831Z,7.12
2024-03-08T09:11:26.422Z,7.12
2024-03-08T09:12:28.133Z,7.13
2024-03-08T09:13:31.942Z,7.00
2024-03-08T09:14:35.725Z,7.11
2024-03-08T09:15:37.406Z,7.13
2024-03-08T09:16:39.114Z,7.15
2024-03-08T09:17:41.855Z,7.14
2024-03-08T09:18:44.157Z,7.23
2024-03-08T09:19:46.057Z,7.26
2024-03-08T09:20:48.243Z,7.34
2024-03-08T09:21:49.806Z,7.42
2024-03-08T09:22:51.450Z,7.50
2024-03-08T09:23:53.033Z,7.49
2024-03-08T09:24:54.536Z,7.55
2024-03-08T09:25:56.199Z,7.60
2024-03-08T09:26:59.772Z,7.47
2024-03-08T09:28:01.350Z,7.57
2024-03-08T09:29:02.935Z,7.62
2024-03-08T09:30:05.415Z,7.63
2024-03-08T09:31:07.001Z,7.70
2024-03-08T09:32:08.974Z,7.73
2024-03-08T09:33:10.951Z,7.62
2024-03-08T09:34:17.413Z,7.59
2024-03-08T09:35:22.070Z,7.51
2024-03-08T09:36:23.679Z,7.48
2024-03-08T09:37:25.228Z,7.53
2024-03-08T09:38:26.805Z,7.52
2024-03-08T09:39:30.045Z,7.64
2024-03-08T09:40:33.570Z,7.67
2024-03-08T09:41:35.257Z,7.71
2024-03-08T09:42:39.668Z,7.73
2024-03-08T09:43:41.557Z,7.77
2024-03-08T09:44:47.247Z,7.85
2024-03-08T09:45:50.815Z,7.91
2024-03-08T09:46:54.221Z,8.02
2024-03-08T09:47:56.096Z,7.99
2024-03-08T09:48:58.092Z,8.00
2024-03-08T09:49:59.789Z,8.08
2024-03-08T09:51:01.945Z,8.08
2024-03-08T09:52:06.117Z,8.13
2024-03-08T09:53:11.246Z,8.14
2024-03-08T09:54:23.201Z,8.16
2024-03-08T09:55:27.104Z,8.25
2024-03-08T09:56:29.023Z,8.29
2024-03-08T09:57:30.689Z,8.25
2024-03-08T09:58:43.634Z,8.21
2024-03-08T09:59:48.208Z,8.27
2024-03-08T10:00:49.786Z,8.30
2024-03-08T10:01:53.198Z,8.37
2024-03-08T10:02:55.261Z,8.33
2024-03-08T10:03:58.526Z,8.31
2024-03-08T10:05:00.127Z,8.38
2024-03-08T10:06:01.835Z,8.45
2024-03-08T10:07:03.491Z,8.45
2024-03-08T10:08:07.799Z,8.45
2024-03-08T10:09:11.600Z,8.42
2024-03-08T10:10:13.600Z,8.51
2024-03-08T10:11:15.337Z,8.55
2024-03-08T10:12:18.296Z,8.63
2024-03-08T10:13:21.034Z,8.63
2024-03-08T10:14:22.848Z,8.55
2024-03-08T10:15:31.021Z,8.64
2024-03-08T10:16:32.677Z,8.61
2024-03-08T10:17:36.375Z,8.73
2024-03-08T10:18:38.198Z,8.73
2024-03-08T10:19:40.327Z,8.73
2024-03-08T10:20:42.228Z,8.63
2024-03-08T10:21:55.066Z,8.64
2024-03-08T10:23:03.094Z,8.72
2024-03-08T10:24:11.996Z,8.85
2024-03-08T10:25:14.653Z,8.93
2024-03-08T10:26:19.158Z,8.96
2024-03-08T10:27:20.733Z,9.06
2024-03-08T10:28:23.665Z,9.08
2024-03-08T10:29:25.457Z,9.18
2024-03-08T10:30:26.999Z,9.24
2024-03-08T10:31:28.700Z,9.32
2024-03-08T10:32:30.265Z,9.42
2024-03-08T10:33:31.879Z,9.50
2024-03-08T10:34:33.423Z,9.49
2024-03-08T10:35:35.365Z,9.58
2024-03-08T10:36:39.106Z,9.60
2024-03-08T10:37:48.822Z,9.65
2024-03-08T10:38:54.582Z,9.66
2024-03-08T10:40:12.254Z,9.74
2024-03-08T10:41:14.821Z,9.77
2024-03-08T10:42:20.495Z,9.80
2024-03-08T10:43:28.546Z,9.81
2024-03-08T10:44:30.505Z,9.85
2024-03-08T10:45:39.235Z,9.91
2024-03-08T10:46:49.971Z,9.95
2024-03-08T10:48:00.685Z,10.02
2024-03-08T10:49:09.052Z,9.95
2024-03-08T10:50:23.448Z,9.97
2024-03-08T10:51:26.881Z,9.92
2024-03-08T10:52:28.609Z,9.84
2024-03-08T10:53:30.709Z,9.81
2024-03-08T10:54:33.672Z,9.75
2024-03-08T10:55:40.641Z,9.86
2024-03-08T10:56:42.297Z,9.89
2024-03-08T10:57:44.283Z,9.97
2024-03-08T10:58:47.261Z,9.97
2024-03-08T10:59:51.163Z,9.98
2024-03-08T11:00:54.946Z,9.99
2024-03-08T11:01:56.743Z,9.99
2024-03-08T11:02:58.408Z,9.96
2024-03-08T11:03:59.960Z,10.02
2024-03-08T11:05:05.016Z,9.93
2024-03-08T11:06:10.605Z,10.01
2024-03-08T11:07:18.432Z,10.06
2024-03-08T11:08:20.376Z,10.09
2024-03-08T11:09:36.693Z,10.06
2024-03-08T11:10:57.148Z,9.96
2024-03-08T11:12:21.881Z,10.04
2024-03-08T11:13:46.893Z,9.97
2024-03-08T11:14:53.203Z,9.94
2024-03-08T11:15:55.209Z,10.01
2024-03-08T11:16:56.865Z,10.01
2024-03-08T11:18:01.484Z,10.03
2024-03-08T11:19:27.154Z,10.11
2024-03-08T11:20:29.122Z,10.15
2024-03-08T11:21:32.570Z,10.05
2024-03-08T11:22:35.179Z,9.95
2024-03-08T11:23:36.862Z,9.93
2024-03-08T11:24:41.322Z,10.01
2024-03-08T11:25:45.539Z,9.90
2024-03-08T11:26:47.874Z,9.98
2024-03-08T11:28:07.025Z,9.74
2024-03-08T11:29:36.373Z,9.87
2024-03-08T11:30:39.698Z,9.90
2024-03-08T11:31:42.273Z,9.86
2024-03-08T11:32:49.922Z,9.95
2024-03-08T11:33:53.227Z,10.00
2024-03-08T11:34:55.079Z,10.13
2024-03-08T11:36:26.969Z,10.24
2024-03-08T11:37:31.395Z,10.25
2024-03-08T11:38:34.445Z,10.36
2024-03-08T11:39:38.249Z,10.57
2024-03-08T11:40:41.154Z,10.57
2024-03-08T11:41:46.474Z,10.60
2024-03-08T11:42:49.632Z,10.67
2024-03-08T11:44:06.248Z,10.80
2024-03-08T11:45:12.539Z,10.83
2024-03-08T11:46:19.023Z,10.79
2024-03-08T11:47:21.880Z,10.72
2024-03-08T11:48:24.379Z,10.75
2024-03-08T11:49:26.592Z,10.70
2024-03-08T11:50:28.647Z,10.74
2024-03-08T11:51:31.279Z,10.66
2024-03-08T11:52:32.877Z,10.51
2024-03-08T11:53:34.564Z,10.50
2024-03-08T11:54:37.304Z,10.51
2024-03-08T11:55:39.192Z,10.49
2024-03-08T11:56:42.760Z,10.56
2024-03-08T11:57:44.904Z,10.54
2024-03-08T11:58:55.557Z,10.57
2024-03-08T11:59:58.273Z,10.56
2024-03-08T12:01:07.115Z,10.44
2024-03-08T12:02:12.208Z,10.57
2024-03-08T12:03:14.075Z,10.50
2024-03-08T12:04:15.737Z,10.53
2024-03-08T12:05:17.659Z,10.44
2024-03-08T12:06:19.395Z,10.42
2024-03-08T12:07:21.103Z,10.59
2024-03-08T12:08:22.648Z,10.62
2024-03-08T12:09:24.259Z,10.60
2024-03-08T12:10:26.298Z,10.63
2024-03-08T12:11:29.927Z,10.73
2024-03-08T12:12:33.823Z,10.70
2024-03-08T12:13:36.037Z,10.80
2024-03-08T12:14:38.252Z,10.90
2024-03-08T12:15:40.675Z,10.95
2024-03-08T12:16:43.841Z,11.08
2024-03-08T12:17:49.316Z,11.14
2024-03-08T12:18:53.182Z,11.25
2024-03-08T12:19:55.841Z,11.37
2024-03-08T12:21:11.807Z,11.35
2024-03-08T12:22:16.579Z,11.34
2024-03-08T12:23:18.331Z,11.45
2024-03-08T12:24:20.466Z,11.40
2024-03-08T12:25:22.134Z,11.40
2024-03-08T12:26:27.326Z,11.54
2024-03-08T12:27:29.872Z,11.55
2024-03-08T12:28:31.634Z,11.55
2024-03-08T12:29:33.157Z,11.54
2024-03-08T12:30:34.873Z,11.47
2024-03-08T12:31:37.299Z,11.42
2024-03-08T12:32:39.926Z,11.44
2024-03-08T12:33:57.700Z,11.38
2024-03-08T12:34:59.663Z,11.41
2024-03-08T12:36:01.240Z,11.40
2024-03-08T12:37:02.888Z,11.32
2024-03-08T12:38:09.430Z,11.32
2024-03-08T12:39:13.550Z,11.36
2024-03-08T12:40:17.894Z,11.40
2024-03-08T12:41:20.531Z,11.50
2024-03-08T12:42:24.161Z,11.46
2024-03-08T12:43:25.776Z,11.47
2024-03-08T12:44:29.415Z,11.39
2024-03-08T12:45:31.052Z,11.29
2024-03-08T12:46:33.752Z,11.07
2024-03-08T12:47:35.388Z,10.94
2024-03-08T12:48:37.968Z,10.85
2024-03-08T12:49:40.315Z,10.94
2024-03-08T12:50:45.017Z,11.03
2024-03-08T12:51:46.564Z,11.31
2024-03-08T12:52:50.979Z,11.36
2024-03-08T12:53:56.954Z,11.58
2024-03-08T12:54:58.757Z,11.73
2024-03-08T12:56:00.412Z,11.75
2024-03-08T12:57:02.040Z,11.99
2024-03-08T12:58:04.524Z,12.15
2024-03-08T12:59:07.022Z,12.33
2024-03-08T13:00:14.189Z,12.21
2024-03-08T13:01:16.408Z,12.22
2024-03-08T13:02:18.167Z,12.27
2024-03-08T13:03:19.744Z,12.14
2024-03-08T13:04:22.682Z,12.29
2024-03-08T13:05:24.501Z,12.51
2024-03-08T13:06:26.165Z,12.59
2024-03-08T13:07:27.906Z,12.54
2024-03-08T13:08:30.861Z,12.47
2024-03-08T13:09:32.900Z,12.54
2024-03-08T13:10:34.491Z,12.68
2024-03-08T13:11:38.003Z,12.75
2024-03-08T13:12:39.945Z,12.83
2024-03-08T13:13:42.121Z,13.03
2024-03-08T13:14:43.728Z,13.03
2024-03-08T13:15:45.310Z,12.93
2024-03-08T13:16:50.100Z,12.90
2024-03-08T13:17:52.020Z,13.05
2024-03-08T13:18:54.745Z,13.13
2024-03-08T13:19:58.794Z,13.32
2024-03-08T13:21:00.553Z,13.44
2024-03-08T13:22:05.552Z,13.59
2024-03-08T13:23:09.652Z,13.62
2024-03-08T13:24:11.236Z,13.69
2024-03-08T13:25:14.387Z,13.44
2024-03-08T13:26:16.868Z,13.32
2024-03-08T13:27:21.221Z,13.34
2024-03-08T13:28:29.048Z,13.14
2024-03-08T13:29:31.218Z,13.13
2024-03-08T13:30:32.924Z,13.14
2024-03-08T13:31:37.503Z,13.18
2024-03-08T13:32:40.674Z,13.15
2024-03-08T13:33:43.390Z,13.23
2024-03-08T13:34:48.672Z,13.20
2024-03-08T13:35:52.074Z,13.14
2024-03-08T13:36:55.660Z,12.96
2024-03-08T13:37:57.261Z,12.91
2024-03-08T13:39:00.511Z,12.93
2024-03-08T13:40:02.313Z,12.88
2024-03-08T13:41:04.160Z,12.76
2024-03-08T13:42:10.772Z,12.67
2024-03-08T13:43:12.317Z,12.44
2024-03-08T13:44:14.010Z,12.42
2024-03-08T13:45:18.719Z,12.34
2024-03-08T13:46:20.315Z,12.17
2024-03-08T13:47:21.900Z,12.01
2024-03-08T13:48:23.458Z,11.98
2024-03-08T13:49:27.303Z,11.98
2024-03-08T13:50:29.064Z,11.79
2024-03-08T13:51:31.966Z,11.80
2024-03-08T13:52:33.587Z,11.75
2024-03-08T13:53:38.284Z,11.70
2024-03-08T13:54:39.858Z,11.61
2024-03-08T13:55:42.039Z,11.46